Time;durP1;ratioP1;P1;durP2;ratioP2;P2;SDS_P1;SDS_P2;PMS_P1;PMS_P2;Temp;Humidity;BMP_temperature;BMP_pressure;BME280_temperature;BME280_humidity;BME280_pressure;Samples;Min_cycle;Max_cycle;Signal;HPM_P1;HPM_P2
2023/02/10 00:01:14;;;;;;;10.23;5.75;;;-0.50;94.20;;;;;;4993172;28;20030;-76
2023/02/10 00:03:40;;;;;;;8.48;6.68;;;-0.50;94.10;;;;;;4994413;28;20026;-76
2023/02/10 00:06:07;;;;;;;10.10;7.68;;;-0.50;93.90;;;;;;4994575;28;20022;-75
2023/02/10 00:08:33;;;;;;;8.30;6.07;;;-0.60;93.90;;;;;;4994538;28;20037;-77
2023/02/10 00:11:01;;;;;;;9.27;5.93;;;-0.60;94.00;;;;;;4994097;28;20480;-78
2023/02/10 00:13:28;;;;;;;11.55;7.72;;;-0.50;94.10;;;;;;4993930;28;20026;-79
2023/02/10 00:15:54;;;;;;;9.25;5.82;;;-0.50;94.20;;;;;;4992672;28;20034;-77
2023/02/10 00:18:20;;;;;;;8.30;6.28;;;-0.60;93.80;;;;;;4994288;28;20034;-77
2023/02/10 00:20:46;;;;;;;10.75;6.55;;;-0.60;93.90;;;;;;4994220;28;20138;-77
2023/02/10 00:23:12;;;;;;;9.32;5.75;;;-0.60;93.90;;;;;;4992709;28;20076;-75
2023/02/10 00:25:38;;;;;;;7.85;5.72;;;-0.60;93.80;;;;;;4994413;28;20468;-77
2023/02/10 00:28:04;;;;;;;9.50;6.55;;;-0.60;93.80;;;;;;4993504;28;20069;-78
2023/02/10 00:30:31;;;;;;;10.98;6.97;;;-0.60;93.80;;;;;;4989710;28;20025;-76
2023/02/10 00:32:57;;;;;;;10.45;7.25;;;-0.60;93.80;;;;;;4987200;28;20030;-77
2023/02/10 00:35:23;;;;;;;12.52;6.45;;;-0.50;93.80;;;;;;4993731;28;20034;-77
2023/02/10 00:37:49;;;;;;;7.25;5.78;;;-0.50;93.90;;;;;;4993809;28;20029;-77
2023/02/10 00:40:15;;;;;;;7.32;4.78;;;-0.50;93.80;;;;;;4993490;28;20030;-76
2023/02/10 00:42:41;;;;;;;8.03;5.83;;;-0.50;93.60;;;;;;4993628;28;20026;-77
2023/02/10 00:45:08;;;;;;;10.13;4.68;;;-0.60;93.50;;;;;;4993441;28;20282;-76
2023/02/10 00:47:33;;;;;;;8.05;4.90;;;-0.50;93.60;;;;;;4993423;28;20022;-78
2023/02/10 00:49:59;;;;;;;6.50;5.03;;;-0.60;93.50;;;;;;4993285;28;20097;-75
2023/02/10 00:52:25;;;;;;;7.55;4.80;;;-0.70;93.30;;;;;;4993596;28;20026;-79
2023/02/10 00:54:51;;;;;;;7.50;5.53;;;-0.70;93.20;;;;;;4993239;28;20420;-76
2023/02/10 00:57:17;;;;;;;9.65;5.30;;;-0.70;92.90;;;;;;4993388;28;20153;-79
2023/02/10 00:59:42;;;;;;;9.25;5.75;;;-0.70;92.90;;;;;;4992016;28;20034;-75
2023/02/10 01:02:08;;;;;;;10.55;5.70;;;-0.70;92.80;;;;;;4993228;28;20048;-76
2023/02/10 01:04:34;;;;;;;11.73;5.30;;;-0.70;92.80;;;;;;4993184;28;20026;-78
2023/02/10 01:07:00;;;;;;;9.82;4.80;;;-0.70;92.80;;;;;;4991878;28;20031;-76
2023/02/10 01:09:26;;;;;;;7.57;4.35;;;-0.70;92.80;;;;;;4993015;28;20076;-76
2023/02/10 01:11:52;;;;;;;9.88;5.50;;;-0.70;92.70;;;;;;4991735;28;20031;-76
2023/02/10 01:14:18;;;;;;;8.80;5.50;;;-0.70;92.70;;;;;;4992695;28;20022;-76
2023/02/10 01:16:44;;;;;;;7.65;5.07;;;-0.60;92.70;;;;;;4992892;28;20042;-77
2023/02/10 01:19:11;;;;;;;7.93;5.20;;;-0.60;92.70;;;;;;4992449;28;20125;-76
2023/02/10 01:21:38;;;;;;;8.98;4.95;;;-0.60;92.70;;;;;;4991678;28;20025;-76
2023/02/10 01:24:05;;;;;;;9.35;6.00;;;-0.60;92.80;;;;;;4991728;28;20361;-77
2023/02/10 01:26:31;;;;;;;7.78;5.20;;;-0.60;92.80;;;;;;4992931;28;20467;-76
2023/02/10 01:28:57;;;;;;;10.90;5.50;;;-0.60;92.90;;;;;;4992586;28;20101;-76
2023/02/10 01:31:23;;;;;;;7.60;4.93;;;-0.60;92.90;;;;;;4979315;28;20476;-77
2023/02/10 01:33:53;;;;;;;7.60;5.80;;;-0.60;92.80;;;;;;4992627;28;20022;-77
2023/02/10 01:36:22;;;;;;;9.95;5.63;;;-0.70;92.70;;;;;;4991556;28;20110;-76
2023/02/10 01:38:48;;;;;;;9.73;6.10;;;-0.70;92.80;;;;;;4986843;28;20037;-76
2023/02/10 01:41:18;;;;;;;9.02;5.88;;;-0.70;92.80;;;;;;4992303;28;20037;-75
2023/02/10 01:43:54;;;;;;;10.50;6.72;;;-0.70;92.90;;;;;;4990694;28;20026;-76
2023/02/10 01:46:20;;;;;;;13.00;6.75;;;-0.80;92.90;;;;;;4991257;28;20035;-76
2023/02/10 01:48:46;;;;;;;8.57;6.15;;;-0.80;92.90;;;;;;4992356;28;20022;-76
2023/02/10 01:51:14;;;;;;;10.93;6.82;;;-0.80;93.00;;;;;;4992543;28;20065;-77
2023/02/10 01:53:40;;;;;;;12.85;6.97;;;-0.90;93.00;;;;;;4991326;28;20018;-77
2023/02/10 01:56:06;;;;;;;10.55;7.22;;;-0.80;93.00;;;;;;4992516;28;20142;-76
2023/02/10 01:58:34;;;;;;;11.88;8.93;;;-0.90;93.10;;;;;;4991769;28;20018;-76
2023/02/10 02:01:00;;;;;;;9.02;5.55;;;-0.90;93.10;;;;;;4992274;28;20030;-77
2023/02/10 02:03:26;;;;;;;8.43;5.88;;;-0.80;93.10;;;;;;4990855;28;20026;-75
2023/02/10 02:05:52;;;;;;;10.93;6.50;;;-0.90;93.00;;;;;;4991793;28;20034;-74
2023/02/10 02:08:28;;;;;;;11.05;6.68;;;-0.90;93.10;;;;;;4990813;28;20023;-75
2023/02/10 02:11:06;;;;;;;13.23;7.53;;;-0.90;93.20;;;;;;4990542;28;20030;-73
2023/02/10 02:13:51;;;;;;;13.40;6.82;;;-0.90;93.20;;;;;;4992079;28;20022;-77
2023/02/10 02:16:25;;;;;;;12.27;6.65;;;-0.90;93.30;;;;;;4984447;28;20046;-76
2023/02/10 02:19:29;;;;;;;10.00;7.05;;;-0.90;93.20;;;;;;4992024;28;20034;-76
2023/02/10 02:22:14;;;;;;;12.48;7.45;;;-0.90;93.30;;;;;;4969264;28;20064;-77
2023/02/10 02:25:02;;;;;;;13.32;6.03;;;-0.90;93.30;;;;;;4992387;28;20472;-77
2023/02/10 02:28:07;;;;;;;14.60;8.63;;;-0.90;93.30;;;;;;4986143;28;20023;-77
2023/02/10 02:31:14;;;;;;;15.68;8.27;;;-1.00;93.30;;;;;;4985230;28;20057;-77
2023/02/10 02:33:48;;;;;;;11.27;7.13;;;-0.90;93.40;;;;;;4984153;28;20026;-78
2023/02/10 02:36:30;;;;;;;14.48;8.98;;;-1.00;93.30;;;;;;4990611;28;20033;-77
2023/02/10 02:39:01;;;;;;;10.15;7.07;;;-1.00;93.40;;;;;;4992020;28;20034;-78
2023/02/10 02:41:27;;;;;;;12.15;8.05;;;-1.00;93.40;;;;;;4991789;28;20023;-76
2023/02/10 02:43:54;;;;;;;10.77;7.82;;;-1.00;93.40;;;;;;4984700;28;20118;-75
2023/02/10 02:46:31;;;;;;;10.57;7.43;;;-1.00;93.40;;;;;;4991851;28;20031;-76
2023/02/10 02:49:17;;;;;;;12.90;8.05;;;-1.00;93.30;;;;;;4991553;28;20085;-77
2023/02/10 02:52:04;;;;;;;13.73;7.75;;;-1.00;93.30;;;;;;4991619;28;20026;-76
2023/02/10 02:54:42;;;;;;;;;;;-1.00;93.40;;;;;;4990692;28;20031;-78
2023/02/10 02:57:19;;;;;;;11.23;7.50;;;-1.10;93.40;;;;;;4991529;28;19918;-78
2023/02/10 03:00:08;;;;;;;14.90;9.23;;;-1.10;93.30;;;;;;4991405;28;20040;-77
2023/02/10 03:02:35;;;;;;;11.40;7.28;;;-1.10;93.50;;;;;;4990176;28;20434;-76
2023/02/10 03:05:02;;;;;;;14.07;8.48;;;-1.10;93.60;;;;;;4991793;28;20030;-77
2023/02/10 03:07:27;;;;;;;18.80;9.18;;;-1.20;93.90;;;;;;4991606;28;20025;-77
2023/02/10 03:09:53;;;;;;;18.58;10.40;;;-1.20;94.40;;;;;;4991466;28;20110;-77
2023/02/10 03:12:19;;;;;;;15.73;9.73;;;-1.20;94.20;;;;;;4991874;28;20030;-79
2023/02/10 03:14:45;;;;;;;13.02;9.10;;;-1.20;94.00;;;;;;4991471;28;20042;-76
2023/02/10 03:17:11;;;;;;;19.45;10.27;;;-1.30;94.10;;;;;;4990317;28;20019;-76
2023/02/10 03:19:36;;;;;;;13.95;8.98;;;-1.20;93.90;;;;;;4993457;28;20042;-77
2023/02/10 03:22:02;;;;;;;14.68;9.25;;;-1.20;93.90;;;;;;4993620;28;20034;-79
2023/02/10 03:24:28;;;;;;;18.50;10.07;;;-1.20;94.00;;;;;;4995241;28;20022;-77
2023/02/10 03:26:54;;;;;;;15.88;9.15;;;-1.20;93.90;;;;;;4995068;28;20042;-77
2023/02/10 03:29:20;;;;;;;17.05;10.55;;;-1.20;93.90;;;;;;4994861;28;20036;-76
2023/02/10 03:31:45;;;;;;;18.00;11.18;;;-1.20;93.80;;;;;;4977174;28;20121;-77
2023/02/10 03:34:11;;;;;;;17.80;10.52;;;-1.20;93.80;;;;;;4994214;28;20033;-76
2023/02/10 03:36:37;;;;;;;19.85;12.05;;;-1.20;93.80;;;;;;4995048;28;20026;-76
2023/02/10 03:39:04;;;;;;;15.38;11.50;;;-1.20;94.00;;;;;;4995639;28;20057;-77
2023/02/10 03:41:30;;;;;;;20.23;12.23;;;-1.20;94.30;;;;;;4994820;28;20026;-78
2023/02/10 03:43:55;;;;;;;19.08;11.25;;;-1.20;94.00;;;;;;4993019;28;20061;-76
2023/02/10 03:46:21;;;;;;;16.20;10.55;;;-1.10;94.10;;;;;;4993497;28;20050;-78
2023/02/10 03:48:48;;;;;;;19.92;12.50;;;-1.10;94.10;;;;;;4986131;28;20058;-76
2023/02/10 03:51:13;;;;;;;19.52;12.90;;;-1.10;94.10;;;;;;4994536;28;20025;-77
2023/02/10 03:53:39;;;;;;;24.35;11.82;;;-1.10;94.00;;;;;;4994495;28;20022;-76
2023/02/10 03:56:06;;;;;;;18.08;10.73;;;-1.10;94.10;;;;;;4994265;28;20046;-76
2023/02/10 03:58:32;;;;;;;17.87;10.00;;;-1.10;94.10;;;;;;4993766;28;20054;-79
2023/02/10 04:00:58;;;;;;;18.35;10.93;;;-1.00;94.20;;;;;;4994041;28;20094;-78
2023/02/10 04:03:24;;;;;;;18.50;11.13;;;-1.00;94.20;;;;;;4993214;28;20477;-77
2023/02/10 04:05:50;;;;;;;16.13;9.68;;;-1.10;94.00;;;;;;4994138;28;20472;-77
2023/02/10 04:08:16;;;;;;;19.40;10.48;;;-1.10;94.00;;;;;;4994290;28;20431;-76
2023/02/10 04:10:42;;;;;;;13.93;7.82;;;-1.20;94.00;;;;;;4993933;28;20022;-77
2023/02/10 04:13:08;;;;;;;19.05;12.25;;;-1.20;94.00;;;;;;4994212;28;20391;-76
2023/02/10 04:15:34;;;;;;;22.80;11.70;;;-1.30;94.20;;;;;;4994023;28;20027;-76
2023/02/10 04:18:00;;;;;;;19.48;12.32;;;-1.30;94.20;;;;;;4994043;28;20113;-77
2023/02/10 04:20:26;;;;;;;18.42;11.23;;;-1.30;94.40;;;;;;4993219;28;20122;-77
2023/02/10 04:22:51;;;;;;;20.50;11.93;;;-1.30;94.40;;;;;;4993844;28;20031;-77
2023/02/10 04:25:17;;;;;;;23.90;12.45;;;-1.30;94.40;;;;;;4993917;28;20027;-78
2023/02/10 04:27:43;;;;;;;18.33;13.00;;;-1.30;94.40;;;;;;4993616;28;20026;-77
2023/02/10 04:30:10;;;;;;;16.02;11.00;;;-1.40;94.50;;;;;;4986611;28;20496;-77
2023/02/10 04:32:36;;;;;;;20.35;11.90;;;-1.30;94.60;;;;;;4992492;28;20033;-75
2023/02/10 04:35:02;;;;;;;21.23;10.95;;;-1.40;94.50;;;;;;4986077;28;20022;-76
2023/02/10 04:37:28;;;;;;;23.65;12.65;;;-1.40;94.60;;;;;;4994054;28;20364;-77
2023/02/10 04:39:54;;;;;;;17.95;10.85;;;-1.40;94.80;;;;;;4991750;28;20044;-77
2023/02/10 04:42:29;;;;;;;21.20;13.88;;;-1.30;94.80;;;;;;4995354;28;20515;-78
2023/02/10 04:44:57;;;;;;;21.90;11.98;;;-1.40;94.70;;;;;;4993107;28;20033;-77
2023/02/10 04:47:23;;;;;;;;;;;-1.40;94.80;;;;;;4993762;28;20491;-77
2023/02/10 04:49:49;;;;;;;22.33;11.18;;;-1.40;94.80;;;;;;4993609;28;19912;-78
2023/02/10 04:52:15;;;;;;;18.92;10.15;;;-1.50;94.80;;;;;;4992642;28;20038;-77
2023/02/10 04:54:41;;;;;;;16.20;9.95;;;-1.50;95.00;;;;;;4987873;28;20078;-77
2023/02/10 04:57:06;;;;;;;17.13;10.50;;;-1.50;94.90;;;;;;4993991;28;20042;-77
2023/02/10 04:59:32;;;;;;;19.13;11.82;;;-1.50;94.90;;;;;;4993614;28;20085;-80
2023/02/10 05:01:58;;;;;;;19.88;12.60;;;-1.60;95.10;;;;;;4993378;28;20023;-78
2023/02/10 05:04:24;;;;;;;20.45;11.20;;;-1.60;95.20;;;;;;4993292;28;20023;-76
2023/02/10 05:06:50;;;;;;;24.65;13.27;;;-1.60;95.30;;;;;;4993389;28;20902;-77
2023/02/10 05:09:15;;;;;;;17.75;9.88;;;-1.60;95.40;;;;;;4992541;28;20023;-77
2023/02/10 05:11:42;;;;;;;22.45;12.38;;;-1.50;95.70;;;;;;4993208;28;20030;-78
2023/02/10 05:14:07;;;;;;;14.52;10.35;;;-1.50;95.50;;;;;;4992948;28;20061;-78
2023/02/10 05:16:33;;;;;;;16.45;11.48;;;-1.40;95.50;;;;;;4993440;28;20019;-76
2023/02/10 05:18:59;;;;;;;19.42;10.57;;;-1.40;95.40;;;;;;4992833;28;20038;-78
2023/02/10 05:21:25;;;;;;;22.20;11.93;;;-1.40;95.30;;;;;;4993221;28;20027;-77
2023/02/10 05:23:51;;;;;;;20.70;10.82;;;-1.40;95.30;;;;;;4992752;28;20037;-77
2023/02/10 05:26:16;;;;;;;18.15;11.05;;;-1.40;95.30;;;;;;4991815;28;20105;-77
2023/02/10 05:28:42;;;;;;;14.68;9.88;;;-1.40;95.30;;;;;;4992760;28;20026;-78
2023/02/10 05:31:08;;;;;;;20.88;10.35;;;-1.40;95.20;;;;;;4991554;28;20026;-76
2023/02/10 05:33:34;;;;;;;19.77;11.43;;;-1.40;95.20;;;;;;4992941;28;20032;-77
2023/02/10 05:36:00;;;;;;;19.98;12.23;;;-1.50;95.20;;;;;;4992134;28;20030;-76
2023/02/10 05:38:26;;;;;;;23.95;12.63;;;-1.50;95.70;;;;;;4992430;28;20026;-78
2023/02/10 05:40:53;;;;;;;19.83;12.07;;;-1.40;95.60;;;;;;4989878;28;20484;-76
2023/02/10 05:43:19;;;;;;;22.80;12.47;;;-1.40;95.50;;;;;;4991941;28;20168;-76
2023/02/10 05:45:47;;;;;;;17.30;11.68;;;-1.40;95.30;;;;;;4992113;28;20108;-77
2023/02/10 05:48:13;;;;;;;20.80;11.48;;;-1.40;95.30;;;;;;4992430;28;20022;-78
2023/02/10 05:50:39;;;;;;;17.30;9.77;;;-1.50;95.40;;;;;;4992426;28;20029;-77
2023/02/10 05:53:06;;;;;;;16.55;9.90;;;-1.50;95.30;;;;;;4992521;28;20069;-78
2023/02/10 05:55:32;;;;;;;15.35;10.32;;;-1.50;95.30;;;;;;4993083;28;20049;-77
2023/02/10 05:57:58;;;;;;;18.67;12.32;;;-1.50;95.40;;;;;;4974723;28;20439;-77
2023/02/10 06:00:23;;;;;;;19.27;11.43;;;-1.50;95.40;;;;;;4991237;28;20038;-76
2023/02/10 06:02:51;;;;;;;22.05;11.02;;;-1.40;95.10;;;;;;4992213;28;20080;-77
2023/02/10 06:05:16;;;;;;;16.27;10.07;;;-1.50;95.10;;;;;;4992267;28;20081;-78
2023/02/10 06:07:42;;;;;;;11.43;7.53;;;-1.50;95.50;;;;;;4982481;28;20018;-77
2023/02/10 06:10:08;;;;;;;15.52;10.88;;;-1.40;95.00;;;;;;4992359;28;20030;-78
2023/02/10 06:12:34;;;;;;;17.30;10.10;;;-1.50;94.90;;;;;;4987673;28;20472;-77
2023/02/10 06:15:00;;;;;;;15.43;9.25;;;-1.60;95.00;;;;;;4991521;28;20162;-78
2023/02/10 06:17:27;;;;;;;16.77;9.77;;;-1.70;95.10;;;;;;4988383;28;20456;-76
2023/02/10 06:19:53;;;;;;;;;;;-1.80;95.10;;;;;;4991532;28;20096;-77
2023/02/10 06:22:19;;;;;;;16.92;10.05;;;-1.80;95.20;;;;;;4990280;28;19910;-76
2023/02/10 06:24:44;;;;;;;18.50;10.88;;;-1.90;95.30;;;;;;4991946;28;20065;-77
2023/02/10 06:27:11;;;;;;;18.52;8.52;;;-1.90;95.40;;;;;;4991896;28;20057;-77
2023/02/10 06:29:37;;;;;;;22.30;12.57;;;-1.80;95.40;;;;;;4990310;28;20085;-76
2023/02/10 06:32:03;;;;;;;19.88;10.65;;;-1.90;95.40;;;;;;4991613;28;20488;-78
2023/02/10 06:34:28;;;;;;;20.63;10.95;;;-1.90;95.30;;;;;;4991807;28;20042;-77
2023/02/10 06:36:54;;;;;;;14.45;10.65;;;-1.90;95.20;;;;;;4991594;28;20479;-77
2023/02/10 06:39:20;;;;;;;17.02;11.02;;;-1.80;95.60;;;;;;4990015;28;20045;-78
2023/02/10 06:41:46;;;;;;;16.77;11.15;;;-1.80;95.30;;;;;;4989577;28;20118;-79
2023/02/10 06:44:12;;;;;;;20.17;11.10;;;-1.90;95.20;;;;;;4991620;28;20509;-79
2023/02/10 06:46:37;;;;;;;16.92;9.55;;;-1.80;95.30;;;;;;4989824;28;20056;-77
2023/02/10 06:49:03;;;;;;;17.00;11.13;;;-1.80;95.30;;;;;;4991698;28;20019;-78
2023/02/10 06:51:29;;;;;;;13.90;8.20;;;-1.70;95.30;;;;;;4991748;28;20077;-77
2023/02/10 06:53:55;;;;;;;19.33;11.32;;;-1.60;95.20;;;;;;4994523;28;20034;-78
2023/02/10 06:56:21;;;;;;;16.40;9.20;;;-1.50;94.90;;;;;;4995292;28;20131;-78
2023/02/10 06:58:47;;;;;;;20.15;11.15;;;-1.40;94.70;;;;;;4995436;28;20064;-77
2023/02/10 07:01:16;;;;;;;16.67;10.88;;;-1.40;94.10;;;;;;4994931;28;20439;-76
2023/02/10 07:03:42;;;;;;;19.00;11.43;;;-1.40;94.00;;;;;;4993445;28;20408;-77
2023/02/10 07:06:08;;;;;;;17.58;10.65;;;-1.30;94.30;;;;;;4995531;28;20030;-77
2023/02/10 07:08:34;;;;;;;17.38;10.75;;;-1.30;93.80;;;;;;4995414;28;20379;-77
2023/02/10 07:11:00;;;;;;;20.92;13.52;;;-1.30;93.80;;;;;;4994431;28;20057;-76
2023/02/10 07:13:26;;;;;;;13.40;8.13;;;-1.20;93.80;;;;;;4995535;28;20471;-78
2023/02/10 07:15:52;;;;;;;19.95;10.80;;;-1.10;93.80;;;;;;4990810;28;20030;-79
2023/02/10 07:18:18;;;;;;;14.60;9.52;;;-1.10;93.60;;;;;;4995309;28;20547;-78
2023/02/10 07:20:43;;;;;;;14.82;8.85;;;-1.20;93.10;;;;;;4994612;28;20065;-77
2023/02/10 07:23:09;;;;;;;15.75;8.48;;;-1.20;93.30;;;;;;4995608;28;20045;-83
2023/02/10 07:25:35;;;;;;;16.02;9.13;;;-1.20;93.10;;;;;;4995371;28;20093;-79
2023/02/10 07:28:01;;;;;;;17.42;9.18;;;-1.30;93.30;;;;;;4994997;28;20027;-80
2023/02/10 07:30:27;;;;;;;16.70;9.18;;;-1.20;93.40;;;;;;4994438;28;20024;-79
2023/02/10 07:32:53;;;;;;;12.77;7.75;;;-1.20;93.20;;;;;;4995658;28;20034;-80
2023/02/10 07:35:19;;;;;;;10.73;7.13;;;-1.30;92.80;;;;;;4993981;28;20073;-80
2023/02/10 07:37:44;;;;;;;10.77;6.55;;;-1.40;93.00;;;;;;4994909;28;20384;-78
2023/02/10 07:40:10;;;;;;;16.27;8.35;;;-1.50;93.10;;;;;;4994727;28;20407;-80
2023/02/10 07:42:36;;;;;;;19.20;9.18;;;-1.50;93.30;;;;;;4994819;28;20022;-80
2023/02/10 07:45:03;;;;;;;21.42;8.73;;;-1.40;93.60;;;;;;4994646;28;20026;-78
2023/02/10 07:47:29;;;;;;;15.85;10.02;;;-1.20;93.50;;;;;;4994607;28;20014;-79
2023/02/10 07:49:54;;;;;;;19.08;10.43;;;-1.00;93.00;;;;;;4994686;28;20056;-79
2023/02/10 07:52:21;;;;;;;17.60;9.95;;;-0.70;92.40;;;;;;4994839;28;20068;-79
2023/02/10 07:54:48;;;;;;;16.98;10.85;;;-0.50;92.20;;;;;;4994749;28;20026;-79
2023/02/10 07:57:14;;;;;;;13.30;9.27;;;-0.20;92.10;;;;;;4992620;28;20514;-78
2023/02/10 07:59:40;;;;;;;14.52;8.43;;;0.10;91.70;;;;;;4994203;28;20038;-78
2023/02/10 08:02:09;;;;;;;14.70;9.00;;;0.30;91.10;;;;;;4993875;28;20022;-78
2023/02/10 08:04:35;;;;;;;17.05;8.95;;;0.40;90.40;;;;;;4993334;28;20531;-76
2023/02/10 08:07:01;;;;;;;17.17;9.23;;;0.40;90.10;;;;;;5007871;28;20035;-76
2023/02/10 08:09:27;;;;;;;18.15;10.18;;;0.30;89.90;;;;;;4992908;28;20029;-77
2023/02/10 08:11:52;;;;;;;15.30;9.13;;;0.40;90.20;;;;;;4994222;28;20392;-77
2023/02/10 08:14:18;;;;;;;16.10;10.07;;;0.40;90.00;;;;;;4993197;28;20026;-76
2023/02/10 08:16:46;;;;;;;14.75;8.70;;;0.50;90.00;;;;;;4993303;28;20421;-77
2023/02/10 08:19:12;;;;;;;17.38;9.43;;;0.60;90.10;;;;;;4993438;28;20119;-79
2023/02/10 08:21:38;;;;;;;13.85;7.40;;;0.60;89.30;;;;;;4976435;28;20125;-78
2023/02/10 08:24:04;;;;;;;17.70;12.10;;;0.40;88.90;;;;;;4994205;28;20037;-79
2023/02/10 08:26:30;;;;;;;15.00;9.95;;;0.30;89.60;;;;;;4994239;28;20022;-78
2023/02/10 08:28:58;;;;;;;19.10;10.40;;;0.20;89.40;;;;;;4993870;28;20038;-79
2023/02/10 08:31:24;;;;;;;14.70;7.70;;;0.20;89.60;;;;;;4993947;28;20047;-78
2023/02/10 08:33:50;;;;;;;16.63;10.10;;;0.40;90.00;;;;;;4993582;28;20071;-77
2023/02/10 08:36:18;;;;;;;22.38;10.75;;;0.40;88.60;;;;;;4992415;28;20085;-78
2023/02/10 08:38:45;;;;;;;17.50;8.45;;;0.40;89.20;;;;;;4993562;28;20399;-79
2023/02/10 08:41:11;;;;;;;22.05;8.07;;;0.50;88.60;;;;;;4993736;28;20037;-77
2023/02/10 08:43:37;;;;;;;11.68;7.78;;;0.40;87.90;;;;;;4991600;28;20109;-79
2023/02/10 08:46:03;;;;;;;17.33;10.70;;;0.80;88.70;;;;;;4983699;28;20117;-79
2023/02/10 08:48:30;;;;;;;12.63;8.75;;;0.90;86.80;;;;;;4993385;28;20097;-77
2023/02/10 08:50:56;;;;;;;16.13;10.97;;;1.30;87.40;;;;;;4993589;28;20077;-80
2023/02/10 08:53:22;;;;;;;15.93;10.00;;;1.90;85.80;;;;;;4993398;28;20097;-78
2023/02/10 08:55:59;;;;;;;14.90;9.80;;;2.00;81.20;;;;;;4979786;28;20050;-78
2023/02/10 08:58:25;;;;;;;12.63;8.75;;;2.00;81.20;;;;;;4993083;28;20033;-79
2023/02/10 09:00:51;;;;;;;15.68;7.63;;;1.70;79.60;;;;;;4991808;28;20482;-80
2023/02/10 09:03:17;;;;;;;14.45;9.70;;;1.60;80.40;;;;;;4993213;28;20377;-80
2023/02/10 09:05:45;;;;;;;16.60;9.25;;;1.70;81.30;;;;;;4991419;28;20030;-80
2023/02/10 09:08:12;;;;;;;14.45;9.27;;;2.00;80.50;;;;;;4993294;28;20062;-79
2023/02/10 09:10:40;;;;;;;16.50;9.95;;;2.00;80.50;;;;;;4993301;28;20053;-78
2023/02/10 09:13:08;;;;;;;;;;;2.10;79.20;;;;;;4992978;28;20033;-81
2023/02/10 09:15:37;;;;;;;14.68;8.00;;;1.90;78.40;;;;;;5006595;28;20335;-80
2023/02/10 09:18:03;;;;;;;14.93;7.68;;;1.70;78.40;;;;;;4992418;28;20117;-79
2023/02/10 09:20:29;;;;;;;12.63;8.43;;;1.70;78.10;;;;;;4992249;28;20035;-84
2023/02/10 09:22:54;;;;;;;12.05;6.63;;;1.70;78.50;;;;;;4994672;28;20034;-82
2023/02/10 09:25:21;;;;;;;10.88;6.68;;;1.80;77.20;;;;;;4994570;28;20152;-78
2023/02/10 09:27:47;;;;;;;11.88;7.57;;;1.70;77.30;;;;;;4992387;28;20014;-79
2023/02/10 09:30:14;;;;;;;15.77;9.73;;;1.70;77.70;;;;;;4990778;28;20112;-77
2023/02/10 09:32:40;;;;;;;14.27;7.20;;;1.70;77.80;;;;;;4992486;28;20022;-77
2023/02/10 09:35:06;;;;;;;10.10;8.00;;;1.60;77.20;;;;;;4991849;28;20572;-78
2023/02/10 09:37:31;;;;;;;12.82;8.02;;;1.50;77.30;;;;;;4992495;28;20088;-78
2023/02/10 09:39:57;;;;;;;12.35;8.32;;;1.50;77.70;;;;;;4992325;28;20027;-78
2023/02/10 09:42:48;;;;;;;13.30;9.23;;;1.60;77.60;;;;;;4992275;28;20026;-80
2023/02/10 09:45:24;;;;;;;13.50;7.47;;;1.60;77.40;;;;;;4992627;28;20030;-80
2023/02/10 09:48:02;;;;;;;16.02;8.27;;;1.60;77.30;;;;;;4993230;28;20050;-80
2023/02/10 09:50:49;;;;;;;13.00;8.10;;;1.50;77.50;;;;;;4992394;28;20384;-80
2023/02/10 09:53:21;;;;;;;11.73;7.40;;;1.60;77.50;;;;;;4991966;28;20014;-82
2023/02/10 09:55:57;;;;;;;13.50;7.75;;;1.50;75.80;;;;;;4992305;28;20473;-81
2023/02/10 09:58:46;;;;;;;16.40;10.48;;;1.40;76.70;;;;;;4991267;28;20443;-80
2023/02/10 10:01:20;;;;;;;16.63;9.40;;;1.40;77.20;;;;;;4984792;28;20447;-81
2023/02/10 10:04:05;;;;;;;18.80;9.52;;;1.60;77.80;;;;;;4990573;28;20452;-79
2023/02/10 10:06:31;;;;;;;17.83;9.15;;;1.90;77.80;;;;;;4991664;28;20030;-78
2023/02/10 10:09:07;;;;;;;16.45;8.52;;;2.00;77.20;;;;;;4991726;28;20037;-78
2023/02/10 10:11:47;;;;;;;12.83;7.80;;;2.00;76.00;;;;;;4991773;28;20023;-78
2023/02/10 10:14:22;;;;;;;13.63;8.65;;;1.90;75.50;;;;;;4990601;28;20271;-78
2023/02/10 10:17:30;;;;;;;16.02;9.27;;;1.80;75.80;;;;;;4990678;28;20022;-77
2023/02/10 10:20:04;;;;;;;13.38;7.22;;;1.90;75.50;;;;;;4991488;28;20042;-78
2023/02/10 10:22:50;;;;;;;12.55;8.23;;;1.90;75.60;;;;;;4991706;28;20057;-78
2023/02/10 10:26:08;;;;;;;15.40;8.88;;;1.90;75.00;;;;;;4991655;28;20543;-78
2023/02/10 10:28:56;;;;;;;11.38;6.45;;;1.90;75.50;;;;;;4985014;28;20063;-78
2023/02/10 10:31:29;;;;;;;13.75;7.22;;;1.80;75.20;;;;;;4994790;28;20030;-77
2023/02/10 10:34:03;;;;;;;14.20;7.38;;;1.70;75.00;;;;;;4994630;28;20462;-79
2023/02/10 10:36:41;;;;;;;11.68;6.70;;;1.60;75.00;;;;;;4996244;28;20015;-80
2023/02/10 10:39:22;;;;;;;10.65;7.60;;;1.50;75.10;;;;;;4995190;28;20033;-78
2023/02/10 10:41:48;;;;;;;9.43;6.40;;;1.40;75.20;;;;;;4989493;28;20023;-77
2023/02/10 10:44:17;;;;;;;13.82;7.95;;;1.40;75.70;;;;;;4994117;28;20112;-79
2023/02/10 10:46:51;;;;;;;15.07;9.45;;;1.30;75.90;;;;;;4995409;28;20480;-78
2023/02/10 10:49:17;;;;;;;12.05;8.55;;;1.40;75.90;;;;;;4995720;28;20093;-79
2023/02/10 10:51:43;;;;;;;14.38;8.52;;;1.40;76.00;;;;;;4996081;28;20480;-79
2023/02/10 10:54:16;;;;;;;15.30;9.88;;;1.40;76.00;;;;;;4996067;28;20467;-78
2023/02/10 10:57:02;;;;;;;15.55;10.25;;;1.50;76.20;;;;;;4995632;28;20069;-79
2023/02/10 10:59:42;;;;;;;12.85;7.72;;;1.50;75.70;;;;;;4990579;28;20037;-80
2023/02/10 11:02:18;;;;;;;18.60;11.45;;;1.50;75.30;;;;;;4995418;28;20145;-78
2023/02/10 11:04:45;;;;;;;15.45;9.98;;;1.50;75.60;;;;;;4994034;28;20113;-79
2023/02/10 11:07:19;;;;;;;16.92;10.65;;;1.50;75.50;;;;;;4995109;28;20023;-79
2023/02/10 11:09:55;;;;;;;17.15;11.10;;;1.50;75.60;;;;;;4993401;28;20499;-79
2023/02/10 11:12:36;;;;;;;21.30;10.35;;;1.50;75.60;;;;;;5010089;28;20112;-79
2023/02/10 11:15:23;;;;;;;19.45;12.20;;;1.60;75.30;;;;;;4985931;28;20076;-80
2023/02/10 11:17:50;;;;;;;19.13;9.73;;;1.50;74.60;;;;;;4995260;28;20022;-80
2023/02/10 11:20:21;;;;;;;13.53;8.77;;;1.50;74.50;;;;;;4994970;28;20046;-78
2023/02/10 11:23:03;;;;;;;16.33;9.20;;;1.40;73.10;;;;;;4991652;28;20114;-79
2023/02/10 11:25:33;;;;;;;17.83;8.50;;;1.30;73.70;;;;;;4994883;28;20089;-78
2023/02/10 11:28:00;;;;;;;13.55;7.45;;;1.30;73.70;;;;;;4993799;28;20018;-76
2023/02/10 11:30:31;;;;;;;16.35;8.35;;;1.40;74.10;;;;;;4991829;28;20053;-77
2023/02/10 11:32:59;;;;;;;13.18;7.90;;;1.40;74.00;;;;;;4994730;28;20427;-76
2023/02/10 11:35:26;;;;;;;14.55;9.70;;;1.50;73.80;;;;;;4994855;28;20109;-78
2023/02/10 11:37:58;;;;;;;17.48;9.15;;;1.60;73.60;;;;;;4994576;28;20109;-76
2023/02/10 11:40:46;;;;;;;14.80;8.45;;;1.50;73.10;;;;;;4992402;28;20617;-77
2023/02/10 11:43:14;;;;;;;17.73;9.63;;;1.60;73.10;;;;;;4989795;28;20388;-76
2023/02/10 11:45:56;;;;;;;14.27;8.77;;;1.50;72.70;;;;;;4995183;28;20037;-78
2023/02/10 11:48:24;;;;;;;16.92;8.82;;;1.60;72.90;;;;;;4994514;28;20021;-76
2023/02/10 11:51:01;;;;;;;16.02;9.48;;;1.60;72.80;;;;;;4994796;28;20022;-76
2023/02/10 11:53:30;;;;;;;18.23;7.43;;;1.60;72.50;;;;;;4994475;28;20022;-76
2023/02/10 11:56:01;;;;;;;14.63;7.60;;;1.60;72.20;;;;;;4994492;28;20050;-77
2023/02/10 11:58:59;;;;;;;14.82;8.05;;;1.60;72.20;;;;;;4993160;28;20037;-77
2023/02/10 12:01:43;;;;;;;14.05;9.00;;;1.50;71.10;;;;;;4992692;28;20069;-77
2023/02/10 12:04:44;;;;;;;15.52;9.63;;;1.50;71.10;;;;;;4993227;28;20023;-76
2023/02/10 12:07:33;;;;;;;17.95;11.38;;;1.60;71.50;;;;;;4992895;28;20018;-75
2023/02/10 12:10:25;;;;;;;19.05;9.23;;;1.60;71.80;;;;;;4990699;28;20030;-76
2023/02/10 12:12:54;;;;;;;13.55;7.93;;;1.60;71.80;;;;;;4971589;28;20067;-76
2023/02/10 12:15:54;;;;;;;15.57;9.40;;;1.50;70.90;;;;;;4994062;28;20516;-76
2023/02/10 12:18:38;;;;;;;15.57;8.82;;;1.40;71.70;;;;;;4988236;28;20023;-76
2023/02/10 12:21:21;;;;;;;13.52;8.65;;;1.40;71.70;;;;;;4993955;28;20542;-76
2023/02/10 12:24:05;;;;;;;14.80;8.35;;;1.30;71.30;;;;;;4992617;28;20027;-77
2023/02/10 12:26:43;;;;;;;19.45;9.13;;;1.30;72.00;;;;;;4987925;28;20029;-79
2023/02/10 12:29:21;;;;;;;13.40;8.38;;;1.30;72.30;;;;;;4992208;28;20353;-80
2023/02/10 12:32:38;;;;;;;16.08;9.20;;;1.30;72.40;;;;;;4993893;28;20110;-78
2023/02/10 12:35:16;;;;;;;18.33;9.57;;;1.30;72.70;;;;;;4956349;28;20034;-77
2023/02/10 12:38:12;;;;;;;13.73;9.20;;;1.40;73.10;;;;;;4987366;28;20033;-78
2023/02/10 12:41:12;;;;;;;15.07;8.85;;;1.40;73.00;;;;;;4993647;28;20030;-76
2023/02/10 12:43:58;;;;;;;14.02;8.30;;;1.30;71.80;;;;;;4988899;28;20015;-74
2023/02/10 12:47:00;;;;;;;15.43;8.77;;;1.10;72.10;;;;;;4986868;28;20416;-75
2023/02/10 12:49:52;;;;;;;16.20;9.93;;;1.10;72.60;;;;;;4992997;28;20439;-74
2023/02/10 12:52:45;;;;;;;20.80;10.40;;;1.00;72.90;;;;;;4991919;28;20076;-77
2023/02/10 12:55:18;;;;;;;12.60;8.75;;;1.00;72.90;;;;;;4991834;28;20103;-76
2023/02/10 12:58:01;;;;;;;17.80;9.10;;;1.00;72.80;;;;;;4992080;28;20023;-78